BEL8HA LPMA-EBBR
Flight info
| Callsign | BEL8HA |
|---|---|
| Flight time | N/A |
| Altitude | 36000 |
| Route | DEGUN DCT ROLAR DCT MARUM DCT ASMAR DCT DEMOS DCT LOTEE/N0457F380 DCT AZFIC DCT ERIGA/N0448F340 DCT GODIX DCT PODEM UN873 BAZOS DCT BELDI DCT VEKIN/N0415F240 Z173 ARVOL |
| Aircraft | A320/M-SDE3FGHIRWY/LB1 |
Departure
| Time | N/A |
|---|---|
| Airport | Cristiano Ronaldo International Airport (LPMA) |
Arrival
| Time | 2026-05-04 17:30 |
|---|---|
| Airport | Brussels Airport (EBBR) |
| Time | Latitude | Longitude | Altitude | Speed | Heading |
|---|---|---|---|---|---|
| 2026-05-04 15:57 | 43.45809 | -7.44212 | 36685 ft | 487 kts | 41° |
| 2026-05-04 15:58 | 43.48306 | -7.40973 | 36814 ft | 486 kts | 41° |
| 2026-05-04 15:58 | 43.48843 | -7.40275 | 36842 ft | 486 kts | 41° |
| 2026-05-04 15:58 | 43.51293 | -7.37087 | 36979 ft | 486 kts | 41° |
| 2026-05-04 15:59 | 43.53716 | -7.33930 | 37085 ft | 486 kts | 41° |
| 2026-05-04 15:59 | 43.56167 | -7.30737 | 37213 ft | 485 kts | 41° |
| 2026-05-04 15:59 | 43.58616 | -7.27544 | 37336 ft | 484 kts | 41° |
| 2026-05-04 15:59 | 43.61069 | -7.24341 | 37475 ft | 484 kts | 41° |
| 2026-05-04 16:00 | 43.63505 | -7.21153 | 37612 ft | 483 kts | 41° |
| 2026-05-04 16:00 | 43.65941 | -7.17958 | 37736 ft | 482 kts | 42° |
| 2026-05-04 16:00 | 43.68373 | -7.14763 | 37863 ft | 481 kts | 42° |
| 2026-05-04 16:00 | 43.70786 | -7.11588 | 38010 ft | 481 kts | 42° |
| 2026-05-04 16:01 | 43.75648 | -7.05180 | 38026 ft | 484 kts | 42° |
| 2026-05-04 16:01 | 43.80531 | -6.98760 | 38018 ft | 484 kts | 42° |
| 2026-05-04 16:02 | 43.85407 | -6.92323 | 38017 ft | 484 kts | 42° |
| 2026-05-04 16:03 | 43.92710 | -6.82642 | 38017 ft | 484 kts | 42° |
| 2026-05-04 16:03 | 43.97582 | -6.76169 | 38020 ft | 485 kts | 42° |
| 2026-05-04 16:04 | 44.02448 | -6.69679 | 38025 ft | 485 kts | 42° |
| 2026-05-04 16:04 | 44.09717 | -6.59959 | 38036 ft | 485 kts | 43° |
| 2026-05-04 16:05 | 44.14576 | -6.53437 | 38032 ft | 485 kts | 43° |
| 2026-05-04 16:06 | 44.21850 | -6.43659 | 38020 ft | 485 kts | 43° |
| 2026-05-04 16:07 | 44.31561 | -6.30559 | 38027 ft | 485 kts | 43° |
| 2026-05-04 16:08 | 44.41244 | -6.17417 | 38025 ft | 485 kts | 43° |
| 2026-05-04 16:09 | 44.53318 | -6.00942 | 38016 ft | 485 kts | 44° |
| 2026-05-04 16:10 | 44.62941 | -5.87727 | 38018 ft | 486 kts | 44° |
| 2026-05-04 16:11 | 44.72611 | -5.74470 | 38017 ft | 486 kts | 43° |
| 2026-05-04 16:12 | 44.87136 | -5.54523 | 38026 ft | 486 kts | 44° |
| 2026-05-04 16:13 | 44.96795 | -5.41179 | 38019 ft | 486 kts | 44° |
| 2026-05-04 16:14 | 45.06433 | -5.27799 | 38014 ft | 486 kts | 44° |
| 2026-05-04 16:16 | 45.18425 | -5.11009 | 38021 ft | 485 kts | 45° |
| 2026-05-04 16:17 | 45.30418 | -4.94160 | 38017 ft | 485 kts | 45° |
| 2026-05-04 16:18 | 45.39972 | -4.80636 | 38012 ft | 485 kts | 45° |
| 2026-05-04 16:19 | 45.51865 | -4.63724 | 38006 ft | 484 kts | 45° |
| 2026-05-04 16:20 | 45.63797 | -4.46642 | 38011 ft | 485 kts | 45° |
| 2026-05-04 16:22 | 45.75632 | -4.29576 | 38014 ft | 484 kts | 46° |
| 2026-05-04 16:23 | 45.89841 | -4.08977 | 38016 ft | 484 kts | 46° |
| 2026-05-04 16:25 | 46.03992 | -3.88276 | 38001 ft | 484 kts | 46° |
| 2026-05-04 16:26 | 46.19673 | -3.65180 | 38006 ft | 484 kts | 46° |
| 2026-05-04 16:28 | 46.31418 | -3.47707 | 37990 ft | 486 kts | 47° |
| 2026-05-04 16:29 | 46.47859 | -3.23062 | 37994 ft | 486 kts | 47° |
| 2026-05-04 16:31 | 46.58825 | -3.04661 | 38004 ft | 482 kts | 61° |
| 2026-05-04 16:32 | 46.68941 | -2.79430 | 37979 ft | 481 kts | 61° |
| 2026-05-04 16:33 | 46.75637 | -2.62571 | 37985 ft | 481 kts | 62° |
| 2026-05-04 16:34 | 46.80654 | -2.49906 | 37988 ft | 480 kts | 62° |
| 2026-05-04 16:35 | 46.92606 | -2.26521 | 37976 ft | 484 kts | 46° |
| 2026-05-04 16:36 | 46.99707 | -2.15985 | 37981 ft | 485 kts | 47° |
| 2026-05-04 16:37 | 47.06792 | -2.05399 | 37987 ft | 485 kts | 47° |
| 2026-05-04 16:38 | 47.16209 | -1.91279 | 37976 ft | 486 kts | 47° |
| 2026-05-04 16:39 | 47.28011 | -1.73485 | 37966 ft | 487 kts | 47° |
| 2026-05-04 16:40 | 47.37443 | -1.59142 | 37958 ft | 487 kts | 47° |
| 2026-05-04 16:41 | 47.49201 | -1.41196 | 37971 ft | 486 kts | 47° |
| 2026-05-04 16:43 | 47.60884 | -1.23218 | 37957 ft | 486 kts | 47° |
| 2026-05-04 16:43 | 47.67907 | -1.12383 | 37971 ft | 486 kts | 47° |
| 2026-05-04 16:45 | 47.81899 | -0.90598 | 37990 ft | 485 kts | 47° |
| 2026-05-04 16:46 | 47.93523 | -0.72375 | 37992 ft | 486 kts | 47° |
| 2026-05-04 16:47 | 48.02800 | -0.57731 | 38000 ft | 485 kts | 48° |
| 2026-05-04 16:48 | 48.12061 | -0.43042 | 37986 ft | 485 kts | 48° |
| 2026-05-04 16:49 | 48.21303 | -0.28294 | 37988 ft | 485 kts | 48° |
| 2026-05-04 16:50 | 48.30505 | -0.13520 | 37984 ft | 487 kts | 48° |
| 2026-05-04 16:51 | 48.37416 | -0.02329 | 37989 ft | 487 kts | 49° |
| 2026-05-04 16:52 | 48.46306 | 0.13069 | 37982 ft | 487 kts | 50° |
| 2026-05-04 16:53 | 48.52934 | 0.24669 | 37981 ft | 487 kts | 50° |
| 2026-05-04 16:54 | 48.61802 | 0.40116 | 37976 ft | 487 kts | 50° |
| 2026-05-04 16:55 | 48.75022 | 0.63374 | 37965 ft | 485 kts | 50° |
| 2026-05-04 16:56 | 48.85962 | 0.82797 | 37967 ft | 484 kts | 50° |
| 2026-05-04 16:57 | 48.92519 | 0.94480 | 37973 ft | 484 kts | 50° |
| 2026-05-04 16:58 | 49.01239 | 1.10110 | 37989 ft | 484 kts | 51° |
| 2026-05-04 17:00 | 49.14237 | 1.33617 | 37979 ft | 484 kts | 51° |
| 2026-05-04 17:01 | 49.25074 | 1.53350 | 37974 ft | 485 kts | 51° |
| 2026-05-04 17:02 | 49.34700 | 1.67780 | 37965 ft | 484 kts | 44° |
| 2026-05-04 17:03 | 49.42004 | 1.78480 | 37939 ft | 484 kts | 44° |
| 2026-05-04 17:03 | 49.49292 | 1.89197 | 37955 ft | 484 kts | 44° |
| 2026-05-04 17:04 | 49.58986 | 2.03562 | 37973 ft | 484 kts | 44° |
| 2026-05-04 17:05 | 49.68650 | 2.17954 | 37962 ft | 483 kts | 44° |
| 2026-05-04 17:06 | 49.75894 | 2.28782 | 37944 ft | 482 kts | 45° |
| 2026-05-04 17:07 | 49.82299 | 2.38393 | 37954 ft | 482 kts | 45° |
| 2026-05-04 17:07 | 49.87918 | 2.46856 | 37960 ft | 482 kts | 45° |
| 2026-05-04 17:08 | 49.95083 | 2.57708 | 37973 ft | 482 kts | 45° |
| 2026-05-04 17:09 | 49.99876 | 2.64998 | 37972 ft | 482 kts | 45° |
| 2026-05-04 17:09 | 50.04650 | 2.72283 | 37974 ft | 481 kts | 45° |
| 2026-05-04 17:10 | 50.16602 | 2.90591 | 37651 ft | 482 kts | 45° |
| 2026-05-04 17:11 | 50.18983 | 2.94256 | 37380 ft | 482 kts | 45° |
| 2026-05-04 17:11 | 50.21366 | 2.97930 | 37111 ft | 482 kts | 46° |
| 2026-05-04 17:11 | 50.26136 | 3.05300 | 36587 ft | 483 kts | 46° |
| 2026-05-04 17:12 | 50.28521 | 3.08997 | 36331 ft | 483 kts | 46° |
| 2026-05-04 17:12 | 50.33296 | 3.16403 | 35531 ft | 485 kts | 46° |
| 2026-05-04 17:13 | 50.40520 | 3.27648 | 32575 ft | 489 kts | 46° |
| 2026-05-04 17:14 | 50.47747 | 3.38941 | 29257 ft | 489 kts | 46° |
| 2026-05-04 17:14 | 50.50155 | 3.42711 | 28017 ft | 487 kts | 46° |
| 2026-05-04 17:14 | 50.55023 | 3.50040 | 25520 ft | 485 kts | 39° |
| 2026-05-04 17:15 | 50.57745 | 3.53156 | 24282 ft | 484 kts | 35° |
| 2026-05-04 17:15 | 50.62336 | 3.58180 | 22272 ft | 480 kts | 35° |
| 2026-05-04 17:16 | 50.67693 | 3.64079 | 20576 ft | 461 kts | 35° |
| 2026-05-04 17:16 | 50.75373 | 3.72585 | 18198 ft | 439 kts | 34° |
| 2026-05-04 17:17 | 50.77860 | 3.75350 | 17326 ft | 434 kts | 36° |
| 2026-05-04 17:17 | 50.85174 | 3.83511 | 14820 ft | 422 kts | 36° |
| 2026-05-04 17:18 | 50.87356 | 3.86559 | 14118 ft | 418 kts | 46° |
| 2026-05-04 17:18 | 50.90647 | 3.93999 | 12696 ft | 407 kts | 58° |
| 2026-05-04 17:19 | 50.93271 | 4.01786 | 11387 ft | 395 kts | 70° |
| 2026-05-04 17:19 | 50.95049 | 4.09594 | 11072 ft | 358 kts | 70° |
| 2026-05-04 17:20 | 50.96679 | 4.16659 | 10832 ft | 326 kts | 70° |
| 2026-05-04 17:20 | 50.98170 | 4.23155 | 10587 ft | 301 kts | 70° |
| 2026-05-04 17:20 | 50.98870 | 4.26227 | 10362 ft | 294 kts | 70° |
| 2026-05-04 17:21 | 51.00236 | 4.32261 | 10207 ft | 290 kts | 70° |
| 2026-05-04 17:21 | 51.01591 | 4.38270 | 9961 ft | 288 kts | 70° |
| 2026-05-04 17:22 | 51.02275 | 4.41285 | 9488 ft | 291 kts | 70° |
| 2026-05-04 17:22 | 51.02949 | 4.44265 | 9064 ft | 290 kts | 70° |
| 2026-05-04 17:23 | 51.04947 | 4.53175 | 7873 ft | 283 kts | 70° |
| 2026-05-04 17:23 | 51.05607 | 4.56138 | 7464 ft | 281 kts | 70° |
| 2026-05-04 17:23 | 51.06894 | 4.61912 | 6670 ft | 277 kts | 69° |
| 2026-05-04 17:24 | 51.07530 | 4.64753 | 6397 ft | 263 kts | 69° |
| 2026-05-04 17:24 | 51.06651 | 4.72140 | 5312 ft | 232 kts | 142° |
| 2026-05-04 17:25 | 51.05192 | 4.73249 | 4685 ft | 236 kts | 164° |
| 2026-05-04 17:25 | 51.02053 | 4.74655 | 3854 ft | 223 kts | 163° |
| 2026-05-04 17:26 | 50.99234 | 4.74844 | 3518 ft | 197 kts | 204° |
| 2026-05-04 17:26 | 50.96935 | 4.70093 | 2875 ft | 181 kts | 247° |
| 2026-05-04 17:27 | 50.95910 | 4.66503 | 2386 ft | 175 kts | 248° |
| 2026-05-04 17:27 | 50.94967 | 4.63215 | 1955 ft | 156 kts | 248° |
| 2026-05-04 17:28 | 50.94084 | 4.60135 | 1549 ft | 152 kts | 249° |
| 2026-05-04 17:29 | 50.92783 | 4.55604 | 920 ft | 149 kts | 248° |
| 2026-05-04 17:29 | 50.91515 | 4.51195 | 310 ft | 145 kts | 248° |
| 2026-05-04 17:30 | 50.90533 | 4.47815 | 120 ft | 45 kts | 238° |
| 2026-05-04 17:31 | 50.90313 | 4.47632 | 121 ft | 14 kts | 89° |
| 2026-05-04 17:31 | 50.90385 | 4.48081 | 118 ft | 12 kts | 121° |
| 2026-05-04 17:32 | 50.90424 | 4.48323 | 117 ft | 14 kts | 64° |
| 2026-05-04 17:33 | 50.90530 | 4.48742 | 119 ft | 6 kts | 135° |
| 2026-05-04 17:33 | 50.90495 | 4.48763 | 121 ft | 5 kts | 156° |
| 2026-05-04 17:34 | 50.90460 | 4.48789 | 120 ft | 0 kts | 155° |